Tropical Cyclones
[Index]
Main Index Home Page Stock Weather Photos Extreme Storms Discussion Storm News and Storm Chasing Reports Tropical Cyclones / Hurricanes / Typhoons Weather Data and Links Wild Fires / Bushfires Weather Observation Techniques Weather Picture Catalogue Tornado Pictures and Reports Stock Video Footage and DVDs for sale
Season 1991-1992 Tropical Cyclone ESAU Track Map
Season 1991-1992 Summaries: [BoM-AU] [JTWC-AU] [JTWC-SIO] [JTWC-SPAC] [JTWC-SH]
<<- Previous TC | JTWC 1991-1992 Season | Next TC ->>

click for intensity scale information  Lat/long Grid: Show Hide

 Date Labels: Show Hide

Joint Typhoon Warning Centre Cyclone Data

Name: ESAU

24 Feb 1992 06:00 UTC to 07 Mar 1992 12:00 UTC

    date/time    lat    long     hPa   cat  kts
1992-02-24 06   13.2   168.5                  20          
1992-02-24 12   13.7   168.8                  20          
1992-02-24 18   14.3   169.0                  20          
1992-02-25 00   14.8   168.8                  20          
1992-02-25 06   15.2   168.5                  25          
1992-02-25 12   15.4   168.0                  25          
1992-02-25 18   15.6   167.7                  25          
1992-02-26 00   15.7   167.5                  30          
1992-02-26 06   15.8   167.2                  35          
1992-02-26 12   15.9   166.8            1     40          
1992-02-26 18   15.9   166.2            1     40          
1992-02-27 00   15.8   165.4            1     45          
1992-02-27 06   15.6   164.6            1     50          
1992-02-27 12   15.4   163.8            2     55          
1992-02-27 18   15.3   163.0            2     60          
1992-02-28 00   15.2   162.2            2     70          
1992-02-28 06   15.0   161.4            3     80          
1992-02-28 12   14.7   160.6            3     95          
1992-02-28 18   14.2   160.0            4    115          
1992-02-29 00   13.9   159.6            5    125          
1992-02-29 06   13.7   159.4            5    130          
1992-02-29 12   13.4   159.4            5    130          
1992-02-29 18   13.3   159.7            5    125          
1992-03-01 00   13.6   160.1            4    115          
1992-03-01 06   14.0   160.4            4    105          
1992-03-01 12   14.4   160.8            3     95          
1992-03-01 18   14.8   161.2            3     95          
1992-03-02 00   15.3   161.6            3     95          
1992-03-02 06   15.7   162.1            4    100          
1992-03-02 12   16.1   162.7            4    100          
1992-03-02 18   16.5   163.2            4    100          
1992-03-03 00   16.9   163.7            4    100          
1992-03-03 06   17.4   164.3            4    100          
1992-03-03 12   18.0   164.8            3     95          
1992-03-03 18   18.8   165.1            3     90          
1992-03-04 00   19.6   165.3            3     90          
1992-03-04 06   20.4   165.4            3     85          
1992-03-04 12   21.2   165.5            3     80          
1992-03-04 18   22.0   165.6            2     70          
1992-03-05 00   22.8   165.5            2     65          
1992-03-05 06   23.6   165.6            2     65          
1992-03-05 12   24.8   165.9            2     60          
1992-03-05 18   26.6   166.0            2     55          
1992-03-06 00   28.4   166.1            1     50          
1992-03-06 06   30.2   166.0            1     45          
1992-03-06 12   31.8   165.7            1     45          
1992-03-06 18   33.2   165.6            1     45          
1992-03-07 00   34.5   165.8            1     45          
1992-03-07 06   35.4   166.9            1     40          
1992-03-07 12   36.1   168.3            1     40          
Winds are 1-min average.

Tropical cyclone tracks developed by Michael Bath using data from the Joint Typhoon Warning Centre Best Tracks and Google Maps.


[Australian Severe Weather index] [Copyright Notice] [Email Contacts] [Search This Site] [Privacy Policy]
Document: tropical_cyclone_esau.htm Updated: 18 September 2016